Portada
METAR-TAF:

METAR-TAF

Aeropuertos :

Tabarka, Túnez

latitud: 36-57N, longitud: 008-45E, altitud: 20 m

Observación

El informe se hizo hace 57 minutos, a las 23:00 UTC
Viento 2 kt del este
Temperatura 7°C
Humedad 100%
Presión 1026 hPa
Visibilidad 10 km o más
Nubes dispersas a una altura de 2000 ft

METAR: DTKA 202300Z 08002KT 9999 SCT020 07/07 Q1026 NOSIG

Hora: 00:57 (23:57 UTC)

Pronóstico

El informe se hizo hace 2 horas y 57 minutos, a las 21:00 UTC
Pronóstico válido del 20 a las 22 UTC al 21 a las 07 UTC
Viento 3 kt con dirección variable
Visibilidad 10 km o más
Nubes dispersas a una altura de 2000 ft
Probabilidad 30% :
Temporalmente
del 21 a las 05 UTC al 21 a las 07 UTC
Visibilidad: 4000 m
neblina

TAF: DTKA 202100Z 2022/2107 VRB03KT 9999 SCT020 PROB30 TEMPO 2105/2107 4000 BR

Observaciones y pronósticos meteorológicos de más de 4000 aeropuertos (mensajes METAR y TAF).

Los puntos amarillos y rojos representan las estaciones disponibles.

Ponga el ratón en el punto deseado para ver el nombre de la estación.

Haga clic para ver las observaciones y los pronósticos meteorológicos.

Para cambiar el mapa : haga clic en los botones verdes con una cruz de color negro para hacer un zoom, en el botón verde con un guión para alejar o en las flechas verdes para mapas adyacentes.


METAR-TAF: